createdAt,value
2023-03-01T00:01:22.607Z,9.20
2023-03-01T00:03:51.311Z,8.03
2023-03-01T00:06:19.995Z,12.63
2023-03-01T00:08:48.071Z,9.13
2023-03-01T00:11:18.909Z,12.03
2023-03-01T00:13:48.083Z,10.63
2023-03-01T00:16:18.322Z,21.30
2023-03-01T00:18:47.887Z,21.53
2023-03-01T00:21:16.280Z,15.83
2023-03-01T00:23:44.371Z,20.13
2023-03-01T00:26:14.912Z,21.33
2023-03-01T00:28:43.979Z,22.03
2023-03-01T00:31:14.955Z,21.93
2023-03-01T00:33:43.620Z,19.20
2023-03-01T00:36:15.087Z,23.07
2023-03-01T00:38:45.176Z,18.50
2023-03-01T00:41:15.257Z,20.30
2023-03-01T00:43:43.870Z,20.10
2023-03-01T00:46:13.876Z,15.23
2023-03-01T00:48:42.619Z,13.83
2023-03-01T00:51:13.466Z,16.47
2023-03-01T00:53:41.946Z,12.93
2023-03-01T00:56:11.787Z,14.93
2023-03-01T00:58:40.533Z,13.63
2023-03-01T01:01:18.281Z,12.03
2023-03-01T01:03:47.961Z,14.83
2023-03-01T01:06:19.133Z,11.53
2023-03-01T01:08:47.147Z,11.17
2023-03-01T01:11:15.623Z,17.40
2023-03-01T01:13:43.901Z,14.67
2023-03-01T01:16:12.167Z,13.33
2023-03-01T01:18:40.331Z,13.73
2023-03-01T01:21:10.086Z,15.10
2023-03-01T01:23:40.515Z,13.17
2023-03-01T01:26:10.197Z,16.57
2023-03-01T01:28:38.601Z,19.57
2023-03-01T01:31:06.869Z,21.10
2023-03-01T01:33:35.293Z,18.80
2023-03-01T01:36:03.360Z,18.23
2023-03-01T01:38:31.441Z,17.60
2023-03-01T01:41:01.820Z,15.70
2023-03-01T01:43:31.777Z,14.70
2023-03-01T01:46:03.242Z,19.47
2023-03-01T01:48:41.472Z,14.43
2023-03-01T01:51:13.891Z,17.27
2023-03-01T01:53:44.328Z,16.87
2023-03-01T01:56:16.050Z,18.20
2023-03-01T01:58:45.552Z,21.83
2023-03-01T02:01:13.869Z,15.20
2023-03-01T02:03:45.433Z,21.90
2023-03-01T02:06:22.837Z,15.03
2023-03-01T02:08:52.953Z,16.10
2023-03-01T02:11:23.220Z,9.90
2023-03-01T02:13:52.220Z,12.03
2023-03-01T02:16:20.494Z,9.27
2023-03-01T02:18:48.966Z,9.00
2023-03-01T02:21:41.525Z,8.67
2023-03-01T02:24:21.925Z,8.17
2023-03-01T02:26:55.948Z,8.73
2023-03-01T02:29:26.427Z,9.03
2023-03-01T02:31:57.496Z,10.80
2023-03-01T02:34:27.904Z,9.97
2023-03-01T02:36:58.846Z,11.37
2023-03-01T02:39:30.911Z,9.13
2023-03-01T02:41:59.979Z,9.23
2023-03-01T02:44:29.364Z,10.80
2023-03-01T02:46:59.642Z,9.47
2023-03-01T02:49:29.936Z,7.30
2023-03-01T02:52:10.610Z,12.17
2023-03-01T02:54:42.883Z,10.77
2023-03-01T02:57:11.160Z,9.23
2023-03-01T02:59:41.871Z,15.00
2023-03-01T03:02:21.157Z,9.13
2023-03-01T03:04:49.323Z,10.93
2023-03-01T03:07:17.897Z,9.00
2023-03-01T03:09:45.834Z,12.70
2023-03-01T03:12:13.815Z,12.40
2023-03-01T03:14:43.129Z,10.30
2023-03-01T03:17:11.104Z,10.03
2023-03-01T03:19:39.080Z,8.80
2023-03-01T03:22:07.084Z,9.50
2023-03-01T03:24:38.994Z,10.70
2023-03-01T03:27:08.081Z,10.00
2023-03-01T03:29:36.192Z,8.03
2023-03-01T03:32:05.950Z,10.90
2023-03-01T03:34:33.963Z,10.07
2023-03-01T03:37:01.973Z,10.40
2023-03-01T03:39:35.778Z,9.27
2023-03-01T03:42:03.981Z,7.10
2023-03-01T03:44:31.918Z,8.93
2023-03-01T03:46:59.917Z,11.70
2023-03-01T03:49:29.300Z,8.30
2023-03-01T03:51:58.053Z,13.60
2023-03-01T03:54:26.058Z,9.90
2023-03-01T03:56:54.018Z,9.70
2023-03-01T03:59:22.166Z,9.17
2023-03-01T04:01:50.163Z,9.93
2023-03-01T04:04:19.869Z,12.47
2023-03-01T04:06:49.466Z,8.87
2023-03-01T04:09:17.412Z,11.07
2023-03-01T04:11:45.349Z,16.03
2023-03-01T04:14:13.369Z,12.07
2023-03-01T04:16:41.430Z,8.83
2023-03-01T04:19:10.532Z,11.83
2023-03-01T04:21:38.515Z,10.73
2023-03-01T04:24:09.883Z,10.83
2023-03-01T04:26:37.856Z,9.97
2023-03-01T04:29:05.837Z,11.87
2023-03-01T04:31:33.812Z,8.93
2023-03-01T04:34:02.095Z,10.07
2023-03-01T04:36:31.875Z,9.50
2023-03-01T04:39:00.046Z,8.93
2023-03-01T04:41:29.354Z,11.47
2023-03-01T04:43:57.319Z,9.90
2023-03-01T04:46:26.446Z,12.57
2023-03-01T04:48:54.521Z,10.97
2023-03-01T04:51:22.550Z,9.97
2023-03-01T04:53:50.545Z,8.60
2023-03-01T04:56:19.576Z,12.00
2023-03-01T04:58:49.123Z,9.90
2023-03-01T05:01:18.695Z,12.03
2023-03-01T05:03:48.195Z,9.50
2023-03-01T05:06:17.802Z,11.30
2023-03-01T05:08:46.229Z,10.10
2023-03-01T05:11:14.503Z,8.10
2023-03-01T05:13:42.871Z,11.53
2023-03-01T05:16:13.231Z,9.03
2023-03-01T05:18:42.504Z,10.97
2023-03-01T05:21:12.100Z,9.07
2023-03-01T05:23:40.697Z,10.43
2023-03-01T05:26:25.887Z,9.80
2023-03-01T05:28:59.560Z,11.20
2023-03-01T05:31:29.500Z,9.17
2023-03-01T05:33:57.626Z,9.77
2023-03-01T05:36:25.687Z,12.20
2023-03-01T05:38:53.713Z,13.77
2023-03-01T05:41:22.357Z,14.87
2023-03-01T05:43:50.486Z,16.70
2023-03-01T05:46:18.546Z,13.93
2023-03-01T05:48:49.240Z,17.23
2023-03-01T05:51:17.246Z,15.60
2023-03-01T05:53:45.468Z,13.77
2023-03-01T05:56:13.458Z,13.93
2023-03-01T05:58:41.438Z,16.60
2023-03-01T06:01:13.666Z,15.93
2023-03-01T06:03:41.642Z,14.60
2023-03-01T06:06:11.038Z,13.87
2023-03-01T06:08:39.026Z,13.07
2023-03-01T06:11:08.151Z,13.73
2023-03-01T06:13:36.195Z,14.70
2023-03-01T06:16:06.970Z,13.97
2023-03-01T06:18:34.998Z,15.20
2023-03-01T06:21:03.147Z,13.57
2023-03-01T06:23:32.684Z,14.70
2023-03-01T06:26:00.885Z,13.90
2023-03-01T06:28:28.923Z,16.03
2023-03-01T06:30:56.920Z,13.23
2023-03-01T06:33:25.325Z,12.37
2023-03-01T06:35:53.544Z,14.10
2023-03-01T06:38:21.568Z,13.03
2023-03-01T06:40:56.076Z,13.60
2023-03-01T06:43:24.392Z,15.07
2023-03-01T06:45:52.448Z,17.50
2023-03-01T06:48:20.438Z,15.73
2023-03-01T06:50:48.485Z,13.80
2023-03-01T06:53:16.727Z,16.27
2023-03-01T06:55:44.748Z,14.27
2023-03-01T06:58:14.135Z,16.57
2023-03-01T07:00:43.954Z,15.33
2023-03-01T07:03:11.961Z,15.40
2023-03-01T07:05:40.004Z,16.87
2023-03-01T07:08:08.051Z,13.93
2023-03-01T07:10:36.126Z,16.97
2023-03-01T07:13:04.492Z,16.03
2023-03-01T07:15:33.887Z,14.50
2023-03-01T07:18:01.979Z,15.23
2023-03-01T07:20:30.023Z,16.03
2023-03-01T07:22:59.490Z,15.07
2023-03-01T07:25:27.541Z,12.97
2023-03-01T07:27:56.216Z,15.10
2023-03-01T07:30:27.145Z,17.63
2023-03-01T07:32:57.182Z,12.83
2023-03-01T07:35:26.770Z,18.73
2023-03-01T07:37:55.189Z,17.30
2023-03-01T07:40:23.223Z,13.67
2023-03-01T07:42:51.227Z,14.03
2023-03-01T07:45:19.332Z,20.13
2023-03-01T07:47:47.497Z,18.07
2023-03-01T07:50:17.109Z,21.93
2023-03-01T07:52:47.675Z,23.07
2023-03-01T07:55:16.099Z,25.80
2023-03-01T07:57:44.122Z,23.53
2023-03-01T08:00:14.515Z,19.40
2023-03-01T08:02:43.100Z,19.77
2023-03-01T08:05:11.911Z,13.63
2023-03-01T08:07:41.393Z,18.80
2023-03-01T08:10:10.452Z,21.77
2023-03-01T08:12:38.645Z,16.83
2023-03-01T08:15:07.847Z,16.37
2023-03-01T08:17:35.899Z,16.87
2023-03-01T08:20:07.107Z,19.90
2023-03-01T08:22:35.225Z,22.13
2023-03-01T08:25:04.960Z,18.83
2023-03-01T08:27:33.131Z,23.40
2023-03-01T08:30:01.093Z,18.40
2023-03-01T08:32:29.175Z,17.03
2023-03-01T08:34:57.204Z,18.60
2023-03-01T08:37:25.246Z,17.07
2023-03-01T08:39:53.298Z,18.27
2023-03-01T08:42:22.778Z,24.93
2023-03-01T08:44:50.916Z,20.77
2023-03-01T08:47:18.983Z,20.67
2023-03-01T08:49:46.956Z,16.67
2023-03-01T08:52:14.923Z,17.00
2023-03-01T08:54:42.922Z,20.30
2023-03-01T08:57:10.933Z,18.93
2023-03-01T08:59:40.294Z,19.03
2023-03-01T09:02:12.866Z,17.70
2023-03-01T09:04:41.276Z,20.57
2023-03-01T09:07:11.259Z,20.87
2023-03-01T09:09:39.780Z,22.23
2023-03-01T09:12:08.220Z,18.93
2023-03-01T09:14:38.251Z,18.10
2023-03-01T09:17:07.625Z,14.80
2023-03-01T09:19:35.649Z,15.43
2023-03-01T09:22:05.235Z,20.50
2023-03-01T09:24:33.296Z,17.47
2023-03-01T09:27:01.860Z,15.83
2023-03-01T09:29:30.465Z,18.73
2023-03-01T09:31:58.613Z,15.83
2023-03-01T09:34:28.114Z,18.00
2023-03-01T09:36:56.074Z,17.53
2023-03-01T09:39:24.592Z,19.00
2023-03-01T09:42:00.718Z,20.43
2023-03-01T09:44:34.895Z,19.47
2023-03-01T09:47:03.239Z,19.07
2023-03-01T09:49:35.237Z,19.93
2023-03-01T09:52:14.432Z,20.17
2023-03-01T09:54:42.491Z,14.17
2023-03-01T09:57:21.564Z,15.83
2023-03-01T10:00:05.360Z,19.57
2023-03-01T10:02:41.144Z,18.20
2023-03-01T10:05:24.897Z,19.40
2023-03-01T10:08:02.519Z,17.10
2023-03-01T10:10:35.348Z,16.63
2023-03-01T10:13:15.155Z,18.17
2023-03-01T10:15:46.540Z,15.63
2023-03-01T10:18:19.049Z,18.00
2023-03-01T10:20:54.192Z,17.17
2023-03-01T10:23:22.267Z,16.37
2023-03-01T10:26:07.745Z,13.07
2023-03-01T10:28:49.228Z,18.53
2023-03-01T10:31:23.169Z,15.43
2023-03-01T10:33:55.780Z,14.73
2023-03-01T10:36:25.507Z,16.40
2023-03-01T10:38:56.026Z,12.97
2023-03-01T10:41:25.396Z,14.77
2023-03-01T10:43:55.626Z,18.90
2023-03-01T10:46:28.643Z,15.80
2023-03-01T10:49:16.569Z,13.23
2023-03-01T10:51:47.469Z,15.83
2023-03-01T10:54:20.846Z,14.23
2023-03-01T10:56:51.153Z,14.20
2023-03-01T10:59:27.418Z,18.77
2023-03-01T11:02:24.603Z,18.03
2023-03-01T11:05:02.141Z,17.37
2023-03-01T11:07:31.685Z,18.40
2023-03-01T11:09:59.650Z,14.43
2023-03-01T11:12:30.697Z,16.03
2023-03-01T11:14:59.241Z,11.60
2023-03-01T11:17:34.637Z,10.83
2023-03-01T11:20:18.040Z,11.10
2023-03-01T11:22:50.849Z,12.63
2023-03-01T11:25:21.832Z,13.70
2023-03-01T11:27:50.114Z,12.97
2023-03-01T11:30:23.205Z,14.93
2023-03-01T11:33:05.221Z,12.87
2023-03-01T11:35:36.588Z,11.47
2023-03-01T11:38:20.678Z,11.77
2023-03-01T11:40:56.034Z,12.40
2023-03-01T11:43:31.640Z,10.83
2023-03-01T11:46:23.055Z,9.40
2023-03-01T11:49:01.154Z,10.43
2023-03-01T11:51:42.796Z,9.10
2023-03-01T11:54:30.763Z,8.43
2023-03-01T11:57:06.345Z,8.27
2023-03-01T12:00:04.171Z,8.47
2023-03-01T12:03:12.912Z,10.37
2023-03-01T12:06:16.446Z,9.27
2023-03-01T12:08:48.207Z,8.80
2023-03-01T12:11:28.966Z,11.17
2023-03-01T12:14:13.921Z,10.17
2023-03-01T12:17:06.832Z,11.53
2023-03-01T12:19:51.764Z,9.87
2023-03-01T12:22:31.495Z,11.67
2023-03-01T12:25:20.855Z,10.90
2023-03-01T12:28:17.526Z,7.83
2023-03-01T12:31:08.792Z,6.43
2023-03-01T12:33:52.302Z,9.53
2023-03-01T12:36:57.759Z,7.63
2023-03-01T12:39:39.875Z,7.17
2023-03-01T12:42:19.088Z,6.87
2023-03-01T12:45:14.864Z,8.93
2023-03-01T12:47:57.347Z,8.70
2023-03-01T12:50:27.847Z,6.17
2023-03-01T12:52:58.759Z,9.03
2023-03-01T12:55:33.484Z,7.77
2023-03-01T12:58:15.343Z,9.77
2023-03-01T13:00:55.436Z,8.87
2023-03-01T13:03:33.987Z,6.97
2023-03-01T13:06:13.072Z,8.23
2023-03-01T13:08:45.807Z,6.60
2023-03-01T13:11:20.535Z,6.63
2023-03-01T13:13:49.966Z,6.33
2023-03-01T13:16:43.989Z,6.40
2023-03-01T13:19:16.558Z,10.17
2023-03-01T13:21:46.112Z,9.00
2023-03-01T13:24:28.358Z,7.00
2023-03-01T13:27:30.081Z,6.50
2023-03-01T13:30:00.785Z,7.53
2023-03-01T13:32:48.474Z,5.00
2023-03-01T13:35:45.462Z,8.97
2023-03-01T13:38:56.045Z,7.23
2023-03-01T13:41:52.052Z,7.70
2023-03-01T13:44:27.237Z,5.23
2023-03-01T13:46:59.954Z,6.67
2023-03-01T13:49:46.177Z,9.00
2023-03-01T13:52:40.317Z,7.57
2023-03-01T13:55:18.926Z,7.60
2023-03-01T13:57:54.732Z,6.50
2023-03-01T14:00:36.265Z,7.47
2023-03-01T14:03:07.061Z,8.47
2023-03-01T14:05:37.806Z,7.20
2023-03-01T14:08:05.966Z,8.93
2023-03-01T14:10:45.794Z,6.70
2023-03-01T14:13:30.862Z,6.73
2023-03-01T14:16:12.404Z,14.33
2023-03-01T14:18:46.186Z,26.27
2023-03-01T14:21:17.829Z,11.07
2023-03-01T14:23:47.773Z,6.47
2023-03-01T14:26:21.888Z,10.17
2023-03-01T14:28:51.027Z,9.77
2023-03-01T14:31:47.013Z,17.10
2023-03-01T14:34:22.450Z,17.53
2023-03-01T14:36:51.943Z,22.17
2023-03-01T14:39:22.155Z,8.23
2023-03-01T14:41:50.364Z,10.00
2023-03-01T14:44:23.959Z,7.17
2023-03-01T14:46:55.596Z,8.70
2023-03-01T14:49:26.946Z,9.03
2023-03-01T14:52:00.693Z,7.33
2023-03-01T14:54:33.445Z,7.87
2023-03-01T14:57:02.940Z,6.17
2023-03-01T14:59:31.224Z,5.70
2023-03-01T15:02:01.187Z,8.47
2023-03-01T15:04:30.719Z,5.70
2023-03-01T15:07:06.184Z,5.10
2023-03-01T15:09:36.438Z,6.97
2023-03-01T15:12:38.789Z,7.97
2023-03-01T15:15:37.957Z,10.20
2023-03-01T15:18:15.425Z,12.63
2023-03-01T15:20:43.587Z,11.37
2023-03-01T15:23:22.664Z,5.70
2023-03-01T15:25:57.587Z,29.07
2023-03-01T15:28:27.934Z,26.20
2023-03-01T15:30:59.628Z,25.30
2023-03-01T15:33:36.972Z,14.73
2023-03-01T15:36:31.993Z,14.37
2023-03-01T15:39:03.471Z,11.83
2023-03-01T15:41:33.327Z,9.77
2023-03-01T15:44:02.576Z,8.27
2023-03-01T15:46:34.137Z,8.53
2023-03-01T15:49:04.616Z,6.10
2023-03-01T15:51:37.116Z,7.77
2023-03-01T15:54:14.516Z,8.57
2023-03-01T15:56:42.442Z,10.83
2023-03-01T15:59:14.310Z,10.00
2023-03-01T16:01:42.519Z,9.33
2023-03-01T16:04:13.760Z,10.00
2023-03-01T16:06:42.031Z,5.97
2023-03-01T16:09:13.485Z,7.70
2023-03-01T16:11:43.503Z,6.80
2023-03-01T16:14:11.852Z,8.20
2023-03-01T16:16:40.209Z,7.70
2023-03-01T16:19:08.294Z,6.93
2023-03-01T16:21:36.281Z,8.23
2023-03-01T16:24:04.384Z,9.03
2023-03-01T16:26:33.876Z,9.33
2023-03-01T16:29:02.072Z,6.77
2023-03-01T16:31:30.499Z,20.97
2023-03-01T16:33:59.933Z,14.93
2023-03-01T16:36:29.437Z,17.27
2023-03-01T16:39:00.187Z,15.97
2023-03-01T16:41:29.132Z,22.90
2023-03-01T16:43:58.774Z,18.23
2023-03-01T16:46:30.108Z,19.13
2023-03-01T16:48:58.953Z,17.53
2023-03-01T16:51:26.923Z,20.00
2023-03-01T16:53:55.117Z,16.63
2023-03-01T16:56:23.070Z,9.80
2023-03-01T16:58:51.091Z,6.93
2023-03-01T17:01:24.357Z,5.57
2023-03-01T17:03:52.638Z,10.43
2023-03-01T17:06:24.477Z,7.67
2023-03-01T17:08:52.774Z,5.80
2023-03-01T17:11:22.071Z,5.40
2023-03-01T17:13:50.298Z,5.60
2023-03-01T17:16:21.398Z,5.00
2023-03-01T17:18:49.973Z,5.53
2023-03-01T17:21:18.639Z,8.37
2023-03-01T17:23:50.242Z,5.53
2023-03-01T17:26:18.792Z,5.00
2023-03-01T17:28:52.383Z,6.90
2023-03-01T17:31:22.366Z,3.70
2023-03-01T17:33:50.476Z,5.10
2023-03-01T17:36:18.454Z,6.83
2023-03-01T17:38:47.229Z,16.50
2023-03-01T17:41:17.766Z,16.90
2023-03-01T17:43:45.982Z,14.27
2023-03-01T17:46:14.139Z,9.50
2023-03-01T17:48:43.532Z,7.03
2023-03-01T17:51:12.905Z,7.50
2023-03-01T17:53:40.935Z,6.47
2023-03-01T17:56:10.102Z,6.10
2023-03-01T17:58:39.304Z,5.77
2023-03-01T18:01:12.626Z,6.93
2023-03-01T18:03:41.242Z,8.60
2023-03-01T18:06:15.203Z,8.37
2023-03-01T18:08:43.456Z,8.23
2023-03-01T18:11:11.566Z,13.03
2023-03-01T18:13:41.262Z,13.67
2023-03-01T18:16:11.518Z,12.73
2023-03-01T18:18:40.286Z,8.60
2023-03-01T18:21:08.600Z,10.83
2023-03-01T18:23:37.978Z,8.80
2023-03-01T18:26:10.280Z,8.50
2023-03-01T18:28:39.367Z,13.00
2023-03-01T18:31:10.789Z,8.37
2023-03-01T18:33:39.999Z,7.27
2023-03-01T18:36:18.754Z,6.27
2023-03-01T18:38:48.638Z,4.70
2023-03-01T18:41:17.344Z,6.07
2023-03-01T18:43:45.468Z,4.10
2023-03-01T18:46:13.459Z,6.07
2023-03-01T18:48:41.466Z,5.87
2023-03-01T18:51:11.375Z,6.57
2023-03-01T18:53:39.771Z,7.87
2023-03-01T18:56:10.157Z,6.27
2023-03-01T18:58:38.566Z,5.73
2023-03-01T19:01:08.360Z,4.90
2023-03-01T19:03:37.462Z,5.30
2023-03-01T19:06:05.834Z,6.40
2023-03-01T19:08:33.882Z,5.10
2023-03-01T19:11:03.284Z,3.80
2023-03-01T19:13:35.088Z,5.40
2023-03-01T19:16:08.429Z,7.17
2023-03-01T19:18:36.902Z,3.93
2023-03-01T19:21:06.417Z,3.37
2023-03-01T19:23:35.168Z,6.43
2023-03-01T19:26:04.644Z,2.77
2023-03-01T19:28:35.457Z,6.00
2023-03-01T19:31:05.576Z,4.40
2023-03-01T19:33:35.009Z,10.03
2023-03-01T19:36:03.940Z,11.77
2023-03-01T19:38:32.068Z,7.47
2023-03-01T19:41:00.104Z,8.17
2023-03-01T19:43:28.111Z,15.47
2023-03-01T19:45:57.589Z,12.97
2023-03-01T19:48:26.534Z,15.13
2023-03-01T19:50:54.968Z,13.90
2023-03-01T19:53:23.274Z,38.50
2023-03-01T19:55:53.048Z,21.67
2023-03-01T19:58:21.129Z,23.70
2023-03-01T20:00:49.179Z,26.33
2023-03-01T20:03:18.667Z,15.90
2023-03-01T20:05:46.745Z,10.93
2023-03-01T20:08:14.759Z,16.43
2023-03-01T20:10:43.332Z,13.13
2023-03-01T20:13:11.287Z,12.80
2023-03-01T20:15:42.759Z,9.97
2023-03-01T20:18:11.574Z,11.63
2023-03-01T20:20:40.910Z,13.10
2023-03-01T20:23:08.874Z,9.50
2023-03-01T20:25:36.988Z,10.87
2023-03-01T20:28:05.022Z,10.83
2023-03-01T20:30:33.026Z,7.50
2023-03-01T20:33:01.059Z,8.70
2023-03-01T20:35:32.669Z,6.93
2023-03-01T20:38:02.077Z,7.23
2023-03-01T20:40:31.136Z,7.53
2023-03-01T20:42:59.389Z,4.87
2023-03-01T20:45:28.329Z,5.00
2023-03-01T20:47:56.953Z,6.43
2023-03-01T20:50:24.953Z,6.07
2023-03-01T20:52:52.941Z,5.63
2023-03-01T20:55:22.269Z,6.13
2023-03-01T20:57:50.233Z,7.17
2023-03-01T21:00:18.893Z,9.33
2023-03-01T21:02:46.970Z,7.87
2023-03-01T21:05:14.945Z,7.47
2023-03-01T21:07:43.601Z,8.30
2023-03-01T21:10:12.614Z,9.73
2023-03-01T21:12:42.008Z,6.87
2023-03-01T21:15:13.107Z,7.90
2023-03-01T21:17:43.133Z,6.90
2023-03-01T21:20:12.176Z,8.13
2023-03-01T21:22:40.142Z,10.30
2023-03-01T21:25:08.597Z,10.23
2023-03-01T21:27:38.254Z,11.93
2023-03-01T21:30:08.826Z,9.63
2023-03-01T21:32:36.853Z,19.23
2023-03-01T21:35:05.062Z,16.60
2023-03-01T21:37:33.046Z,19.00
2023-03-01T21:40:01.054Z,18.60
2023-03-01T21:42:31.891Z,12.53
2023-03-01T21:44:59.882Z,11.93
2023-03-01T21:47:29.235Z,16.53
2023-03-01T21:49:57.219Z,11.80
2023-03-01T21:52:25.235Z,11.53
2023-03-01T21:54:53.317Z,12.00
2023-03-01T21:57:21.303Z,8.20
2023-03-01T21:59:49.230Z,8.33
2023-03-01T22:02:17.193Z,10.17
2023-03-01T22:04:46.849Z,6.97
2023-03-01T22:07:16.009Z,5.10
2023-03-01T22:09:43.964Z,8.00
2023-03-01T22:12:12.000Z,7.27
2023-03-01T22:14:40.553Z,5.37
2023-03-01T22:17:08.576Z,4.93
2023-03-01T22:19:36.538Z,4.67
2023-03-01T22:22:05.873Z,4.93
2023-03-01T22:24:34.131Z,4.10
2023-03-01T22:27:02.082Z,5.07
2023-03-01T22:29:30.681Z,5.27
2023-03-01T22:31:59.524Z,3.40
2023-03-01T22:34:28.226Z,4.83
2023-03-01T22:36:56.549Z,4.20
2023-03-01T22:39:25.881Z,2.23
2023-03-01T22:41:55.921Z,7.50
2023-03-01T22:44:25.175Z,4.13
2023-03-01T22:46:53.862Z,6.13
2023-03-01T22:49:22.338Z,4.87
2023-03-01T22:51:50.994Z,5.93
2023-03-01T22:54:20.398Z,3.87
2023-03-01T22:56:50.681Z,7.20
2023-03-01T22:59:23.054Z,4.83
2023-03-01T23:01:52.150Z,4.80
2023-03-01T23:04:21.304Z,6.77
2023-03-01T23:06:54.052Z,6.57
2023-03-01T23:09:25.047Z,4.90
2023-03-01T23:11:56.541Z,4.80
2023-03-01T23:14:25.054Z,5.93
2023-03-01T23:16:53.936Z,5.20
2023-03-01T23:19:22.619Z,6.03
2023-03-01T23:21:50.989Z,6.47
2023-03-01T23:24:21.255Z,4.43
2023-03-01T23:26:53.239Z,5.83
2023-03-01T23:29:23.246Z,5.10
2023-03-01T23:31:51.313Z,5.40
2023-03-01T23:34:20.045Z,4.10
2023-03-01T23:36:48.082Z,5.27
2023-03-01T23:39:16.175Z,4.67
2023-03-01T23:41:44.581Z,7.33
2023-03-01T23:44:16.091Z,6.70
2023-03-01T23:46:47.053Z,7.13
2023-03-01T23:49:17.078Z,7.87
2023-03-01T23:51:47.713Z,10.27
2023-03-01T23:54:17.307Z,6.43
2023-03-01T23:56:46.489Z,6.50
2023-03-01T23:59:16.746Z,7.20
